createdAt,value
2023-05-04T00:00:47.533Z,7.90
2023-05-04T00:01:47.504Z,7.90
2023-05-04T00:02:47.569Z,7.91
2023-05-04T00:03:47.575Z,7.90
2023-05-04T00:04:47.555Z,7.90
2023-05-04T00:05:47.458Z,7.90
2023-05-04T00:06:47.636Z,7.90
2023-05-04T00:07:47.427Z,7.88
2023-05-04T00:08:47.474Z,7.90
2023-05-04T00:09:47.416Z,7.88
2023-05-04T00:10:47.393Z,7.88
2023-05-04T00:11:47.398Z,7.87
2023-05-04T00:12:47.434Z,7.87
2023-05-04T00:13:47.345Z,7.83
2023-05-04T00:14:47.358Z,7.83
2023-05-04T00:15:47.412Z,7.82
2023-05-04T00:16:47.372Z,7.79
2023-05-04T00:17:47.422Z,7.77
2023-05-04T00:18:47.317Z,7.76
2023-05-04T00:19:47.315Z,7.76
2023-05-04T00:20:47.308Z,7.76
2023-05-04T00:21:47.287Z,7.73
2023-05-04T00:22:47.253Z,7.72
2023-05-04T00:23:47.245Z,7.72
2023-05-04T00:24:47.268Z,7.72
2023-05-04T00:25:47.240Z,7.70
2023-05-04T00:26:47.213Z,7.69
2023-05-04T00:27:47.181Z,7.70
2023-05-04T00:28:47.188Z,7.69
2023-05-04T00:29:47.201Z,7.69
2023-05-04T00:30:47.172Z,7.69
2023-05-04T00:31:47.183Z,7.69
2023-05-04T00:32:47.211Z,7.69
2023-05-04T00:33:47.139Z,7.69
2023-05-04T00:34:47.157Z,7.69
2023-05-04T00:35:47.109Z,7.69
2023-05-04T00:36:47.121Z,7.69
2023-05-04T00:37:47.097Z,7.70
2023-05-04T00:38:47.101Z,7.67
2023-05-04T00:39:47.093Z,7.67
2023-05-04T00:40:47.061Z,7.67
2023-05-04T00:41:47.049Z,7.67
2023-05-04T00:42:47.053Z,7.66
2023-05-04T00:43:47.033Z,7.63
2023-05-04T00:44:47.045Z,7.63
2023-05-04T00:45:47.026Z,7.66
2023-05-04T00:46:47.048Z,7.67
2023-05-04T00:47:47.010Z,7.63
2023-05-04T00:48:46.965Z,7.66
2023-05-04T00:49:47.003Z,7.63
2023-05-04T00:50:46.953Z,7.61
2023-05-04T00:51:46.925Z,7.61
2023-05-04T00:52:46.938Z,7.60
2023-05-04T00:53:46.902Z,7.58
2023-05-04T00:54:46.944Z,7.58
2023-05-04T00:55:46.936Z,7.58
2023-05-04T00:56:46.902Z,7.58
2023-05-04T00:57:46.882Z,7.58
2023-05-04T00:58:46.878Z,7.58
2023-05-04T00:59:46.840Z,7.58
2023-05-04T01:00:47.139Z,7.58
2023-05-04T01:01:46.823Z,7.58
2023-05-04T01:02:46.877Z,7.58
2023-05-04T01:03:46.848Z,7.57
2023-05-04T01:04:46.808Z,7.58
2023-05-04T01:05:46.802Z,7.56
2023-05-04T01:06:46.820Z,7.53
2023-05-04T01:07:46.760Z,7.53
2023-05-04T01:08:46.776Z,7.48
2023-05-04T01:09:46.721Z,7.48
2023-05-04T01:10:46.735Z,7.47
2023-05-04T01:11:46.958Z,7.45
2023-05-04T01:12:46.760Z,7.43
2023-05-04T01:13:46.685Z,7.42
2023-05-04T01:14:46.708Z,7.42
2023-05-04T01:15:46.653Z,7.40
2023-05-04T01:16:46.765Z,7.38
2023-05-04T01:17:46.749Z,7.39
2023-05-04T01:18:46.633Z,7.38
2023-05-04T01:19:46.611Z,7.38
2023-05-04T01:20:46.610Z,7.35
2023-05-04T01:21:46.604Z,7.36
2023-05-04T01:22:46.609Z,7.36
2023-05-04T01:23:46.565Z,7.33
2023-05-04T01:24:46.570Z,7.33
2023-05-04T01:25:46.550Z,7.33
2023-05-04T01:26:46.583Z,7.35
2023-05-04T01:27:46.589Z,7.33
2023-05-04T01:28:46.527Z,7.32
2023-05-04T01:29:46.502Z,7.32
2023-05-04T01:30:46.556Z,7.32
2023-05-04T01:31:46.545Z,7.31
2023-05-04T01:32:46.484Z,7.32
2023-05-04T01:33:46.705Z,7.31
2023-05-04T01:34:46.464Z,7.28
2023-05-04T01:35:46.436Z,7.28
2023-05-04T01:36:46.443Z,7.25
2023-05-04T01:37:46.427Z,7.24
2023-05-04T01:38:46.410Z,7.23
2023-05-04T01:39:46.446Z,7.21
2023-05-04T01:40:46.387Z,7.21
2023-05-04T01:41:46.371Z,7.18
2023-05-04T01:42:46.367Z,7.18
2023-05-04T01:43:46.389Z,7.17
2023-05-04T01:44:46.374Z,7.15
2023-05-04T01:45:46.397Z,7.15
2023-05-04T01:46:46.336Z,7.17
2023-05-04T01:47:46.384Z,7.15
2023-05-04T01:48:46.297Z,7.13
2023-05-04T01:49:46.294Z,7.14
2023-05-04T01:50:46.310Z,7.13
2023-05-04T01:51:46.256Z,7.11
2023-05-04T01:52:46.270Z,7.10
2023-05-04T01:53:46.234Z,7.10
2023-05-04T01:54:46.263Z,7.10
2023-05-04T01:55:46.215Z,7.07
2023-05-04T01:56:46.204Z,7.07
2023-05-04T01:57:46.201Z,7.06
2023-05-04T01:58:46.198Z,7.03
2023-05-04T01:59:46.170Z,7.03
2023-05-04T02:00:46.232Z,7.02
2023-05-04T02:01:46.160Z,6.99
2023-05-04T02:02:46.202Z,7.00
2023-05-04T02:03:46.214Z,6.99
2023-05-04T02:04:46.291Z,6.99
2023-05-04T02:05:46.127Z,6.99
2023-05-04T02:06:46.084Z,6.99
2023-05-04T02:07:46.068Z,6.99
2023-05-04T02:08:46.075Z,7.00
2023-05-04T02:09:46.066Z,6.99
2023-05-04T02:10:46.082Z,7.00
2023-05-04T02:11:46.136Z,7.00
2023-05-04T02:12:46.084Z,7.00
2023-05-04T02:13:46.075Z,7.02
2023-05-04T02:14:46.037Z,6.99
2023-05-04T02:15:46.060Z,6.99
2023-05-04T02:16:46.025Z,7.00
2023-05-04T02:17:45.992Z,6.99
2023-05-04T02:18:45.951Z,6.97
2023-05-04T02:19:45.949Z,6.96
2023-05-04T02:20:45.954Z,6.96
2023-05-04T02:21:45.948Z,6.95
2023-05-04T02:22:45.926Z,6.95
2023-05-04T02:23:45.890Z,6.93
2023-05-04T02:24:45.911Z,6.95
2023-05-04T02:25:45.875Z,6.93
2023-05-04T02:26:45.889Z,6.93
2023-05-04T02:27:45.857Z,6.93
2023-05-04T02:28:45.863Z,6.89
2023-05-04T02:29:45.847Z,6.89
2023-05-04T02:30:45.856Z,6.92
2023-05-04T02:31:45.891Z,6.92
2023-05-04T02:32:45.839Z,6.92
2023-05-04T02:33:45.799Z,6.93
2023-05-04T02:34:45.792Z,6.92
2023-05-04T02:35:45.761Z,6.92
2023-05-04T02:36:45.795Z,6.92
2023-05-04T02:37:45.772Z,6.92
2023-05-04T02:38:45.762Z,6.88
2023-05-04T02:39:45.722Z,6.88
2023-05-04T02:40:45.735Z,6.88
2023-05-04T02:41:45.693Z,6.87
2023-05-04T02:42:45.731Z,6.88
2023-05-04T02:43:45.672Z,6.87
2023-05-04T02:44:45.685Z,6.85
2023-05-04T02:45:45.715Z,6.84
2023-05-04T02:46:45.666Z,6.84
2023-05-04T02:47:45.671Z,6.84
2023-05-04T02:48:45.650Z,6.84
2023-05-04T02:49:45.605Z,6.81
2023-05-04T02:50:45.607Z,6.81
2023-05-04T02:51:45.606Z,6.81
2023-05-04T02:52:45.613Z,6.79
2023-05-04T02:53:45.567Z,6.78
2023-05-04T02:54:45.575Z,6.78
2023-05-04T02:55:46.489Z,6.77
2023-05-04T02:56:45.531Z,6.77
2023-05-04T02:57:45.545Z,6.75
2023-05-04T02:58:45.524Z,6.77
2023-05-04T02:59:45.494Z,6.75
2023-05-04T03:00:45.503Z,6.78
2023-05-04T03:01:45.512Z,6.75
2023-05-04T03:02:45.566Z,6.75
2023-05-04T03:03:45.507Z,6.75
2023-05-04T03:04:45.488Z,6.74
2023-05-04T03:05:45.436Z,6.74
2023-05-04T03:06:45.443Z,6.72
2023-05-04T03:07:45.421Z,6.72
2023-05-04T03:08:45.474Z,6.70
2023-05-04T03:09:47.557Z,6.69
2023-05-04T03:10:45.407Z,6.69
2023-05-04T03:11:45.377Z,6.70
2023-05-04T03:12:45.394Z,6.66
2023-05-04T03:13:45.360Z,6.66
2023-05-04T03:14:45.382Z,6.64
2023-05-04T03:15:45.344Z,6.63
2023-05-04T03:16:45.338Z,6.62
2023-05-04T03:17:45.367Z,6.60
2023-05-04T03:18:45.586Z,6.60
2023-05-04T03:19:45.305Z,6.57
2023-05-04T03:20:45.298Z,6.57
2023-05-04T03:21:45.271Z,6.57
2023-05-04T03:22:45.273Z,6.54
2023-05-04T03:23:45.255Z,6.52
2023-05-04T03:24:45.274Z,6.52
2023-05-04T03:25:45.248Z,6.52
2023-05-04T03:26:45.223Z,6.52
2023-05-04T03:27:45.221Z,6.49
2023-05-04T03:28:45.214Z,6.51
2023-05-04T03:29:45.256Z,6.51
2023-05-04T03:30:45.180Z,6.48
2023-05-04T03:31:45.174Z,6.45
2023-05-04T03:32:45.234Z,6.42
2023-05-04T03:33:45.142Z,6.44
2023-05-04T03:34:45.146Z,6.41
2023-05-04T03:35:45.146Z,6.41
2023-05-04T03:36:45.076Z,6.42
2023-05-04T03:37:45.094Z,6.41
2023-05-04T03:38:45.071Z,6.39
2023-05-04T03:39:45.078Z,6.39
2023-05-04T03:40:45.309Z,6.39
2023-05-04T03:41:45.066Z,6.36
2023-05-04T03:42:45.022Z,6.36
2023-05-04T03:43:45.046Z,6.36
2023-05-04T03:44:45.001Z,6.38
2023-05-04T03:45:45.060Z,6.36
2023-05-04T03:46:44.977Z,6.35
2023-05-04T03:47:45.021Z,6.33
2023-05-04T03:48:44.960Z,6.35
2023-05-04T03:49:44.958Z,6.35
2023-05-04T03:50:44.930Z,6.33
2023-05-04T03:51:44.965Z,6.33
2023-05-04T03:52:44.911Z,6.33
2023-05-04T03:53:45.121Z,6.33
2023-05-04T03:54:44.916Z,6.31
2023-05-04T03:55:44.875Z,6.31
2023-05-04T03:56:44.865Z,6.30
2023-05-04T03:57:44.876Z,6.30
2023-05-04T03:58:44.836Z,6.30
2023-05-04T03:59:44.858Z,6.30
2023-05-04T04:00:44.835Z,6.28
2023-05-04T04:01:44.817Z,6.28
2023-05-04T04:02:44.919Z,6.30
2023-05-04T04:03:44.896Z,6.30
2023-05-04T04:04:44.817Z,6.28
2023-05-04T04:05:44.776Z,6.30
2023-05-04T04:06:44.760Z,6.31
2023-05-04T04:07:44.787Z,6.33
2023-05-04T04:08:44.721Z,6.36
2023-05-04T04:09:44.714Z,6.36
2023-05-04T04:10:44.719Z,6.36
2023-05-04T04:11:44.715Z,6.36
2023-05-04T04:12:44.716Z,6.38
2023-05-04T04:13:44.715Z,6.39
2023-05-04T04:14:44.658Z,6.42
2023-05-04T04:15:44.750Z,6.44
2023-05-04T04:16:44.853Z,6.44
2023-05-04T04:17:44.693Z,6.44
2023-05-04T04:18:44.664Z,6.45
2023-05-04T04:19:44.624Z,6.46
2023-05-04T04:20:44.623Z,6.46
2023-05-04T04:21:44.603Z,6.48
2023-05-04T04:22:45.015Z,6.49
2023-05-04T04:23:44.604Z,6.51
2023-05-04T04:24:44.925Z,6.54
2023-05-04T04:25:44.648Z,6.52
2023-05-04T04:26:44.520Z,6.56
2023-05-04T04:27:44.536Z,6.57
2023-05-04T04:28:44.498Z,6.59
2023-05-04T04:29:44.920Z,6.60
2023-05-04T04:30:44.503Z,6.63
2023-05-04T04:31:44.488Z,6.64
2023-05-04T04:32:44.515Z,6.66
2023-05-04T04:33:44.462Z,6.69
2023-05-04T04:34:44.440Z,6.67
2023-05-04T04:35:44.475Z,6.69
2023-05-04T04:36:44.436Z,6.69
2023-05-04T04:37:44.421Z,6.72
2023-05-04T04:38:44.396Z,6.74
2023-05-04T04:39:44.437Z,6.75
2023-05-04T04:40:44.472Z,6.75
2023-05-04T04:41:44.386Z,6.79
2023-05-04T04:42:44.354Z,6.79
2023-05-04T04:43:44.326Z,6.82
2023-05-04T04:44:44.333Z,6.82
2023-05-04T04:45:44.360Z,6.85
2023-05-04T04:46:44.386Z,6.88
2023-05-04T04:47:44.321Z,6.88
2023-05-04T04:48:44.316Z,6.89
2023-05-04T04:49:44.292Z,6.95
2023-05-04T04:50:44.265Z,6.96
2023-05-04T04:51:44.297Z,6.97
2023-05-04T04:52:44.250Z,6.97
2023-05-04T04:53:44.248Z,7.00
2023-05-04T04:54:44.219Z,7.02
2023-05-04T04:55:44.233Z,7.03
2023-05-04T04:56:44.194Z,7.06
2023-05-04T04:57:44.198Z,7.06
2023-05-04T04:58:44.221Z,7.06
2023-05-04T04:59:44.170Z,7.10
2023-05-04T05:00:44.402Z,7.13
2023-05-04T05:01:44.173Z,7.14
2023-05-04T05:02:44.247Z,7.15
2023-05-04T05:03:44.418Z,7.18
2023-05-04T05:04:44.245Z,7.21
2023-05-04T05:05:44.138Z,7.20
2023-05-04T05:06:44.085Z,7.23
2023-05-04T05:07:44.138Z,7.23
2023-05-04T05:08:44.132Z,7.23
2023-05-04T05:09:44.106Z,7.25
2023-05-04T05:10:44.265Z,7.28
2023-05-04T05:11:44.057Z,7.25
2023-05-04T05:12:44.027Z,7.29
2023-05-04T05:13:44.031Z,7.32
2023-05-04T05:14:44.021Z,7.32
2023-05-04T05:15:43.988Z,7.33
2023-05-04T05:16:44.030Z,7.33
2023-05-04T05:17:44.033Z,7.35
2023-05-04T05:18:43.981Z,7.38
2023-05-04T05:19:43.966Z,7.39
2023-05-04T05:20:43.946Z,7.38
2023-05-04T05:21:43.943Z,7.39
2023-05-04T05:22:43.911Z,7.39
2023-05-04T05:23:44.556Z,7.40
2023-05-04T05:24:43.922Z,7.42
2023-05-04T05:25:43.929Z,7.45
2023-05-04T05:26:43.885Z,7.45
2023-05-04T05:27:43.894Z,7.47
2023-05-04T05:28:43.853Z,7.50
2023-05-04T05:29:43.865Z,7.50
2023-05-04T05:30:43.864Z,7.50
2023-05-04T05:31:43.818Z,7.50
2023-05-04T05:32:43.803Z,7.48
2023-05-04T05:33:43.827Z,7.50
2023-05-04T05:34:43.799Z,7.50
2023-05-04T05:35:43.819Z,7.50
2023-05-04T05:36:43.763Z,7.51
2023-05-04T05:37:43.904Z,7.53
2023-05-04T05:38:43.752Z,7.51
2023-05-04T05:39:43.732Z,7.54
2023-05-04T05:40:43.774Z,7.54
2023-05-04T05:41:43.717Z,7.56
2023-05-04T05:42:43.689Z,7.56
2023-05-04T05:43:43.688Z,7.54
2023-05-04T05:44:43.675Z,7.54
2023-05-04T05:45:43.678Z,7.54
2023-05-04T05:46:43.696Z,7.56
2023-05-04T05:47:43.709Z,7.57
2023-05-04T05:48:43.623Z,7.58
2023-05-04T05:49:46.173Z,7.60
2023-05-04T05:50:43.629Z,7.61
2023-05-04T05:51:43.661Z,7.66
2023-05-04T05:52:43.921Z,7.66
2023-05-04T05:53:43.576Z,7.67
2023-05-04T05:54:43.581Z,7.70
2023-05-04T05:55:43.545Z,7.72
2023-05-04T05:56:43.695Z,7.73
2023-05-04T05:57:43.531Z,7.75
2023-05-04T05:58:43.511Z,7.76
2023-05-04T05:59:43.513Z,7.79
2023-05-04T06:00:43.485Z,7.77
2023-05-04T06:01:43.528Z,7.77
2023-05-04T06:02:43.564Z,7.79
2023-05-04T06:03:43.633Z,7.80
2023-05-04T06:04:43.500Z,7.83
2023-05-04T06:05:43.455Z,7.87
2023-05-04T06:06:45.812Z,7.90
2023-05-04T06:07:43.435Z,7.93
2023-05-04T06:08:43.401Z,7.95
2023-05-04T06:09:43.386Z,7.95
2023-05-04T06:10:43.368Z,7.98
2023-05-04T06:11:43.385Z,8.03
2023-05-04T06:12:43.382Z,8.06
2023-05-04T06:13:43.363Z,8.09
2023-05-04T06:14:43.319Z,8.12
2023-05-04T06:15:43.323Z,8.15
2023-05-04T06:16:43.395Z,8.19
2023-05-04T06:17:43.305Z,8.24
2023-05-04T06:18:43.280Z,8.27
2023-05-04T06:19:43.294Z,8.28
2023-05-04T06:20:43.260Z,8.31
2023-05-04T06:21:43.277Z,8.36
2023-05-04T06:22:43.260Z,8.38
2023-05-04T06:23:43.335Z,8.44
2023-05-04T06:24:43.250Z,8.48
2023-05-04T06:25:43.218Z,8.53
2023-05-04T06:26:43.196Z,8.56
2023-05-04T06:27:43.230Z,8.63
2023-05-04T06:28:43.198Z,8.69
2023-05-04T06:29:43.937Z,8.71
2023-05-04T06:30:43.150Z,8.78
2023-05-04T06:31:43.195Z,8.82
2023-05-04T06:32:43.198Z,8.87
2023-05-04T06:33:43.197Z,8.94
2023-05-04T06:34:43.118Z,8.97
2023-05-04T06:35:43.107Z,9.02
2023-05-04T06:36:43.079Z,9.08
2023-05-04T06:37:43.094Z,9.14
2023-05-04T06:38:43.084Z,9.18
2023-05-04T06:39:43.092Z,9.23
2023-05-04T06:40:43.049Z,9.29
2023-05-04T06:41:43.043Z,9.34
2023-05-04T06:42:43.005Z,9.40
2023-05-04T06:43:43.007Z,9.46
2023-05-04T06:44:42.999Z,9.55
2023-05-04T06:45:43.062Z,9.61
2023-05-04T06:46:42.961Z,9.68
2023-05-04T06:47:42.992Z,9.77
2023-05-04T06:48:42.991Z,9.83
2023-05-04T06:49:42.971Z,9.91
2023-05-04T06:50:42.932Z,9.98
2023-05-04T06:51:42.925Z,10.05
2023-05-04T06:52:42.906Z,10.12
2023-05-04T06:53:42.891Z,10.17
2023-05-04T06:54:42.940Z,10.23
2023-05-04T06:55:42.897Z,10.30
2023-05-04T06:56:42.869Z,10.37
2023-05-04T06:57:42.898Z,10.40
2023-05-04T06:58:42.846Z,10.48
2023-05-04T06:59:42.887Z,10.54
2023-05-04T07:00:42.820Z,10.60
2023-05-04T07:01:42.836Z,10.67
2023-05-04T07:02:42.855Z,10.72
2023-05-04T07:03:42.812Z,10.78
2023-05-04T07:04:42.766Z,10.86
2023-05-04T07:05:42.751Z,10.94
2023-05-04T07:06:42.759Z,11.00
2023-05-04T07:07:42.738Z,11.08
2023-05-04T07:08:43.444Z,11.15
2023-05-04T07:09:42.995Z,11.18
2023-05-04T07:10:42.722Z,11.26
2023-05-04T07:11:42.698Z,11.30
2023-05-04T07:12:42.739Z,11.36
2023-05-04T07:13:42.694Z,11.44
2023-05-04T07:14:42.645Z,11.45
2023-05-04T07:15:42.688Z,11.48
2023-05-04T07:16:42.727Z,11.54
2023-05-04T07:17:42.682Z,11.57
2023-05-04T07:18:42.606Z,11.60
2023-05-04T07:19:42.605Z,11.65
2023-05-04T07:20:42.605Z,11.68
2023-05-04T07:21:42.578Z,11.77
2023-05-04T07:22:42.574Z,11.81
2023-05-04T07:23:42.588Z,11.86
2023-05-04T07:24:42.549Z,11.90
2023-05-04T07:25:42.572Z,11.95
2023-05-04T07:26:42.517Z,12.03
2023-05-04T07:27:42.565Z,12.09
2023-05-04T07:28:42.497Z,12.17
2023-05-04T07:29:42.646Z,12.25
2023-05-04T07:30:42.479Z,12.31
2023-05-04T07:31:42.489Z,12.40
2023-05-04T07:32:42.751Z,12.46
2023-05-04T07:33:42.438Z,12.49
2023-05-04T07:34:46.323Z,12.54
2023-05-04T07:35:42.452Z,12.58
2023-05-04T07:36:43.524Z,12.62
2023-05-04T07:37:42.421Z,12.65
2023-05-04T07:38:42.383Z,12.72
2023-05-04T07:39:42.383Z,12.76
2023-05-04T07:40:42.391Z,12.78
2023-05-04T07:41:42.367Z,12.82
2023-05-04T07:42:42.333Z,12.86
2023-05-04T07:43:42.342Z,12.91
2023-05-04T07:44:42.311Z,12.95
2023-05-04T07:45:42.373Z,12.98
2023-05-04T07:46:42.325Z,13.01
2023-05-04T07:47:42.387Z,13.03
2023-05-04T07:48:42.290Z,13.05
2023-05-04T07:49:42.265Z,13.09
2023-05-04T07:50:42.254Z,13.13
2023-05-04T07:51:42.242Z,13.16
2023-05-04T07:52:42.269Z,13.19
2023-05-04T07:53:42.223Z,13.23
2023-05-04T07:54:42.220Z,13.28
2023-05-04T07:55:42.194Z,13.35
2023-05-04T07:56:42.215Z,13.42
2023-05-04T07:57:42.169Z,13.49
2023-05-04T07:58:42.173Z,13.53
2023-05-04T07:59:42.171Z,13.57
2023-05-04T08:00:42.157Z,13.65
2023-05-04T08:01:44.021Z,13.71
2023-05-04T08:02:42.225Z,13.75
2023-05-04T08:03:42.123Z,13.79
2023-05-04T08:04:42.142Z,13.86
2023-05-04T08:05:42.089Z,13.93
2023-05-04T08:06:42.119Z,13.96
2023-05-04T08:07:42.104Z,14.04
2023-05-04T08:08:42.073Z,14.07
2023-05-04T08:09:42.051Z,14.10
2023-05-04T08:10:42.025Z,14.14
2023-05-04T08:11:42.021Z,14.15
2023-05-04T08:12:42.107Z,14.12
2023-05-04T08:13:41.990Z,14.15
2023-05-04T08:14:42.002Z,14.17
2023-05-04T08:15:41.974Z,14.20
2023-05-04T08:16:42.164Z,14.23
2023-05-04T08:17:42.011Z,14.28
2023-05-04T08:18:42.496Z,14.32
2023-05-04T08:19:41.928Z,14.35
2023-05-04T08:20:41.937Z,14.37
2023-05-04T08:21:41.904Z,14.44
2023-05-04T08:22:41.906Z,14.45
2023-05-04T08:23:41.895Z,14.47
2023-05-04T08:24:42.062Z,14.45
2023-05-04T08:25:41.867Z,14.47
2023-05-04T08:26:42.557Z,14.48
2023-05-04T08:27:41.850Z,14.51
2023-05-04T08:28:41.848Z,14.59
2023-05-04T08:29:41.830Z,14.63
2023-05-04T08:30:41.851Z,14.69
2023-05-04T08:31:41.830Z,14.78
2023-05-04T08:32:41.817Z,14.85
2023-05-04T08:33:41.790Z,14.88
2023-05-04T08:34:41.987Z,14.91
2023-05-04T08:35:41.763Z,14.99
2023-05-04T08:36:41.753Z,14.99
2023-05-04T08:37:41.732Z,15.02
2023-05-04T08:38:41.748Z,15.07
2023-05-04T08:39:48.778Z,15.18
2023-05-04T08:40:41.811Z,15.25
2023-05-04T08:41:41.856Z,15.35
2023-05-04T08:42:41.736Z,15.47
2023-05-04T08:43:41.662Z,15.67
2023-05-04T08:44:43.367Z,15.83
2023-05-04T08:45:41.700Z,15.97
2023-05-04T08:46:41.650Z,16.08
2023-05-04T08:47:41.676Z,16.13
2023-05-04T08:48:41.614Z,16.31
2023-05-04T08:49:41.602Z,16.50
2023-05-04T08:50:41.609Z,16.65
2023-05-04T08:51:41.627Z,16.84
2023-05-04T08:52:41.577Z,16.96
2023-05-04T08:53:48.637Z,17.01
2023-05-04T08:54:41.552Z,17.09
2023-05-04T08:55:41.547Z,17.23
2023-05-04T08:56:41.552Z,17.34
2023-05-04T08:57:41.508Z,17.45
2023-05-04T08:58:41.675Z,17.51
2023-05-04T08:59:41.480Z,17.51
2023-05-04T09:00:41.566Z,17.48
2023-05-04T09:01:41.550Z,17.48
2023-05-04T09:02:41.523Z,17.46
2023-05-04T09:03:41.585Z,17.49
2023-05-04T09:04:41.475Z,17.51
2023-05-04T09:05:41.416Z,17.64
2023-05-04T09:06:41.448Z,17.71
2023-05-04T09:07:41.418Z,17.72
2023-05-04T09:08:41.423Z,17.71
2023-05-04T09:09:41.399Z,17.76
2023-05-04T09:10:41.399Z,17.80
2023-05-04T09:11:41.356Z,17.89
2023-05-04T09:12:41.410Z,17.95
2023-05-04T09:13:41.353Z,18.00
2023-05-04T09:14:41.407Z,18.01
2023-05-04T09:15:41.300Z,18.03
2023-05-04T09:16:41.353Z,18.10
2023-05-04T09:17:51.030Z,18.19
2023-05-04T09:18:42.385Z,18.26
2023-05-04T09:19:41.300Z,18.40
2023-05-04T09:20:41.255Z,18.50
2023-05-04T09:21:41.259Z,18.56
2023-05-04T09:22:41.266Z,18.49
2023-05-04T09:23:41.218Z,18.45
2023-05-04T09:24:41.239Z,18.50
2023-05-04T09:25:41.218Z,18.56
2023-05-04T09:26:41.227Z,18.60
2023-05-04T09:27:41.186Z,18.55
2023-05-04T09:28:41.169Z,18.52
2023-05-04T09:29:41.206Z,18.53
2023-05-04T09:30:41.147Z,18.59
2023-05-04T09:31:41.295Z,18.63
2023-05-04T09:32:41.184Z,18.70
2023-05-04T09:33:41.107Z,18.75
2023-05-04T09:34:41.098Z,18.80
2023-05-04T09:35:41.108Z,18.88
2023-05-04T09:36:41.082Z,19.00
2023-05-04T09:37:41.079Z,19.15
2023-05-04T09:38:41.070Z,19.26
2023-05-04T09:39:41.094Z,19.40
2023-05-04T09:40:41.176Z,19.58
2023-05-04T09:41:41.029Z,19.82
2023-05-04T09:42:41.019Z,20.06
2023-05-04T09:43:40.999Z,20.26
2023-05-04T09:44:40.982Z,20.34
2023-05-04T09:45:40.993Z,20.43
2023-05-04T09:46:41.071Z,20.55
2023-05-04T09:47:41.005Z,20.63
2023-05-04T09:48:40.939Z,20.62
2023-05-04T09:49:40.980Z,20.72
2023-05-04T09:50:40.959Z,20.78
2023-05-04T09:51:40.924Z,20.84
2023-05-04T09:52:40.909Z,20.96
2023-05-04T09:53:40.913Z,21.11
2023-05-04T09:54:40.875Z,21.17
2023-05-04T09:55:40.863Z,21.20
2023-05-04T09:56:40.861Z,21.22
2023-05-04T09:57:40.836Z,21.36
2023-05-04T09:58:40.848Z,21.42
2023-05-04T09:59:40.819Z,21.54
2023-05-04T10:00:40.809Z,21.67
2023-05-04T10:01:42.232Z,21.66
2023-05-04T10:02:40.893Z,21.48
2023-05-04T10:03:40.795Z,21.45
2023-05-04T10:04:40.777Z,21.55
2023-05-04T10:05:40.785Z,21.75
2023-05-04T10:06:40.752Z,21.92
2023-05-04T10:07:41.543Z,21.91
2023-05-04T10:08:40.918Z,21.85
2023-05-04T10:09:40.707Z,21.85
2023-05-04T10:10:40.695Z,21.91
2023-05-04T10:11:40.718Z,21.96
2023-05-04T10:12:40.737Z,22.02
2023-05-04T10:13:40.713Z,22.11
2023-05-04T10:14:40.662Z,22.28
2023-05-04T10:15:40.662Z,22.28
2023-05-04T10:16:40.632Z,22.32
2023-05-04T10:17:40.622Z,22.39
2023-05-04T10:18:40.618Z,22.50
2023-05-04T10:19:40.617Z,22.57
2023-05-04T10:20:40.590Z,22.68
2023-05-04T10:21:40.575Z,22.73
2023-05-04T10:22:40.575Z,22.76
2023-05-04T10:23:40.558Z,22.75
2023-05-04T10:24:40.632Z,22.68
2023-05-04T10:25:40.525Z,22.53
2023-05-04T10:26:40.540Z,22.20
2023-05-04T10:27:40.498Z,21.96
2023-05-04T10:28:40.527Z,21.79
2023-05-04T10:29:40.580Z,21.67
2023-05-04T10:30:40.474Z,21.54
2023-05-04T10:31:40.496Z,21.39
2023-05-04T10:32:40.517Z,21.25
2023-05-04T10:33:40.440Z,21.29
2023-05-04T10:34:40.434Z,21.27
2023-05-04T10:35:40.429Z,21.30
2023-05-04T10:36:40.410Z,21.32
2023-05-04T10:37:40.392Z,21.30
2023-05-04T10:38:40.414Z,21.30
2023-05-04T10:39:40.372Z,21.30
2023-05-04T10:40:40.389Z,21.29
2023-05-04T10:41:40.363Z,21.35
2023-05-04T10:42:40.349Z,21.43
2023-05-04T10:43:40.362Z,21.62
2023-05-04T10:44:40.350Z,21.85
2023-05-04T10:45:40.351Z,22.02
2023-05-04T10:46:40.308Z,22.28
2023-05-04T10:47:40.852Z,22.38
2023-05-04T10:48:40.287Z,22.45
2023-05-04T10:49:40.258Z,22.41
2023-05-04T10:50:40.287Z,22.41
2023-05-04T10:51:48.973Z,22.45
2023-05-04T10:52:41.233Z,22.41
2023-05-04T10:53:40.235Z,22.44
2023-05-04T10:54:40.209Z,22.51
2023-05-04T10:55:40.188Z,22.53
2023-05-04T10:56:40.597Z,22.51
2023-05-04T10:57:40.221Z,22.54
2023-05-04T10:58:40.190Z,22.62
2023-05-04T10:59:40.166Z,22.66
2023-05-04T11:00:40.146Z,22.65
2023-05-04T11:01:40.155Z,22.54
2023-05-04T11:02:40.187Z,22.55
2023-05-04T11:03:40.252Z,22.54
2023-05-04T11:04:47.724Z,22.55
2023-05-04T11:05:40.075Z,22.65
2023-05-04T11:06:40.085Z,22.69
2023-05-04T11:07:40.666Z,22.76
2023-05-04T11:08:40.078Z,22.78
2023-05-04T11:09:40.068Z,22.70
2023-05-04T11:10:40.074Z,22.51
2023-05-04T11:11:40.022Z,22.48
2023-05-04T11:12:40.161Z,22.53
2023-05-04T11:13:40.004Z,22.66
2023-05-04T11:14:39.990Z,22.69
2023-05-04T11:15:39.994Z,22.65
2023-05-04T11:16:39.999Z,22.54
2023-05-04T11:17:47.059Z,22.47
2023-05-04T11:18:39.957Z,22.47
2023-05-04T11:19:39.929Z,22.48
2023-05-04T11:20:39.937Z,22.47
2023-05-04T11:21:39.986Z,22.45
2023-05-04T11:22:39.947Z,22.35
2023-05-04T11:23:39.912Z,22.32
2023-05-04T11:24:39.878Z,22.36
2023-05-04T11:25:39.854Z,22.44
2023-05-04T11:26:39.860Z,22.55
2023-05-04T11:27:39.954Z,22.57
2023-05-04T11:28:39.857Z,22.62
2023-05-04T11:29:39.819Z,22.66
2023-05-04T11:30:39.817Z,22.48
2023-05-04T11:31:39.827Z,22.35
2023-05-04T11:32:39.853Z,22.39
2023-05-04T11:33:39.811Z,22.51
2023-05-04T11:34:39.781Z,22.66
2023-05-04T11:35:39.752Z,22.85
2023-05-04T11:36:39.747Z,22.99
2023-05-04T11:37:39.784Z,23.02
2023-05-04T11:38:39.754Z,23.10
2023-05-04T11:39:39.710Z,23.17
2023-05-04T11:40:39.710Z,23.18
2023-05-04T11:41:39.684Z,23.09
2023-05-04T11:42:39.686Z,23.03
2023-05-04T11:43:39.688Z,23.09
2023-05-04T11:44:39.678Z,23.18
2023-05-04T11:45:39.646Z,23.24
2023-05-04T11:46:39.692Z,23.34
2023-05-04T11:47:40.558Z,23.43
2023-05-04T11:48:39.631Z,23.46
2023-05-04T11:49:39.755Z,23.44
2023-05-04T11:50:39.596Z,23.44
2023-05-04T11:51:39.577Z,23.46
2023-05-04T11:52:39.585Z,23.40
2023-05-04T11:53:39.637Z,23.31
2023-05-04T11:54:39.561Z,23.23
2023-05-04T11:55:39.548Z,23.20
2023-05-04T11:56:39.544Z,23.25
2023-05-04T11:57:39.590Z,23.24
2023-05-04T11:58:39.561Z,23.31
2023-05-04T11:59:39.519Z,23.39
2023-05-04T12:00:39.871Z,23.51
2023-05-04T12:01:39.528Z,23.62
2023-05-04T12:02:39.775Z,23.73
2023-05-04T12:03:51.305Z,23.80
2023-05-04T12:04:40.432Z,23.86
2023-05-04T12:05:39.568Z,23.88
2023-05-04T12:06:39.509Z,23.93
2023-05-04T12:07:39.804Z,23.91
2023-05-04T12:08:39.653Z,23.84
2023-05-04T12:09:39.893Z,23.76
2023-05-04T12:10:39.597Z,23.77
2023-05-04T12:11:39.631Z,23.84
2023-05-04T12:12:39.781Z,23.86
2023-05-04T12:13:39.605Z,23.80
2023-05-04T12:14:39.396Z,23.81
2023-05-04T12:15:39.322Z,23.83
2023-05-04T12:16:39.355Z,23.86
2023-05-04T12:17:39.323Z,23.81
2023-05-04T12:18:39.297Z,23.62
2023-05-04T12:19:39.295Z,23.51
2023-05-04T12:20:39.260Z,23.55
2023-05-04T12:21:39.332Z,23.63
2023-05-04T12:22:39.297Z,23.74
2023-05-04T12:23:39.226Z,23.86
2023-05-04T12:24:39.228Z,24.02
2023-05-04T12:25:50.988Z,24.18
2023-05-04T12:26:40.197Z,24.21
2023-05-04T12:27:39.182Z,24.26
2023-05-04T12:28:39.171Z,24.23
2023-05-04T12:29:39.211Z,24.18
2023-05-04T12:30:39.148Z,24.28
2023-05-04T12:31:39.173Z,24.36
2023-05-04T12:32:39.153Z,24.51
2023-05-04T12:33:39.121Z,24.66
2023-05-04T12:34:39.108Z,24.80
2023-05-04T12:35:39.124Z,24.76
2023-05-04T12:36:39.081Z,24.68
2023-05-04T12:37:39.093Z,24.61
2023-05-04T12:38:39.121Z,24.54
2023-05-04T12:39:39.133Z,24.57
2023-05-04T12:40:39.039Z,24.53
2023-05-04T12:41:39.057Z,24.55
2023-05-04T12:42:39.016Z,24.60
2023-05-04T12:43:39.043Z,24.58
2023-05-04T12:44:38.987Z,24.50
2023-05-04T12:45:39.041Z,24.32
2023-05-04T12:46:39.024Z,24.14
2023-05-04T12:47:39.018Z,23.88
2023-05-04T12:48:38.951Z,23.78
2023-05-04T12:49:38.949Z,23.80
2023-05-04T12:50:39.172Z,23.88
2023-05-04T12:51:38.929Z,24.10
2023-05-04T12:52:38.907Z,24.26
2023-05-04T12:53:38.936Z,24.33
2023-05-04T12:54:38.918Z,24.35
2023-05-04T12:55:38.883Z,24.30
2023-05-04T12:56:38.916Z,24.32
2023-05-04T12:57:38.865Z,24.43
2023-05-04T12:58:38.842Z,24.60
2023-05-04T12:59:38.834Z,24.86
2023-05-04T13:00:38.853Z,24.91
2023-05-04T13:01:38.860Z,24.92
2023-05-04T13:02:38.961Z,25.01
2023-05-04T13:03:38.963Z,25.07
2023-05-04T13:04:38.769Z,24.99
2023-05-04T13:05:38.780Z,25.03